sensor_id;sensor_type;location;lat;lon;timestamp;pressure;altitude;pressure_sealevel;temperature;humidity
17209;BME280;8720;48.488;9.202;2023-05-11T00:02:11;96837.91;;;17.04;58.20
17209;BME280;8720;48.488;9.202;2023-05-11T00:04:38;96835.34;;;17.03;58.12
17209;BME280;8720;48.488;9.202;2023-05-11T00:07:06;96836.09;;;17.05;57.95
17209;BME280;8720;48.488;9.202;2023-05-11T00:09:33;96835.28;;;17.04;58.42
17209;BME280;8720;48.488;9.202;2023-05-11T00:12:00;96838.84;;;17.03;58.01
17209;BME280;8720;48.488;9.202;2023-05-11T00:14:28;96831.84;;;17.02;58.21
17209;BME280;8720;48.488;9.202;2023-05-11T00:16:56;96829.13;;;17.04;58.31
17209;BME280;8720;48.488;9.202;2023-05-11T00:19:24;96827.34;;;17.04;58.22
17209;BME280;8720;48.488;9.202;2023-05-11T00:21:52;96832.63;;;17.04;58.34
17209;BME280;8720;48.488;9.202;2023-05-11T00:24:20;96829.91;;;17.06;58.15
17209;BME280;8720;48.488;9.202;2023-05-11T00:26:47;96829.91;;;17.06;58.42
17209;BME280;8720;48.488;9.202;2023-05-11T00:29:14;96828.19;;;17.05;58.12
17209;BME280;8720;48.488;9.202;2023-05-11T00:31:41;96821.19;;;17.04;58.36
17209;BME280;8720;48.488;9.202;2023-05-11T00:34:13;96825.53;;;17.05;58.49
17209;BME280;8720;48.488;9.202;2023-05-11T00:36:42;96808.31;;;16.98;58.37
17209;BME280;8720;48.488;9.202;2023-05-11T00:39:10;96821.28;;;17.02;58.25
17209;BME280;8720;48.488;9.202;2023-05-11T00:41:38;96823.06;;;17.02;58.35
17209;BME280;8720;48.488;9.202;2023-05-11T00:44:06;96819.88;;;16.95;58.37
17209;BME280;8720;48.488;9.202;2023-05-11T00:46:33;96816.91;;;17.01;58.60
17209;BME280;8720;48.488;9.202;2023-05-11T00:49:01;96818.66;;;17.02;58.53
17209;BME280;8720;48.488;9.202;2023-05-11T00:51:30;96811.63;;;17.01;58.87
17209;BME280;8720;48.488;9.202;2023-05-11T00:53:59;96819.56;;;17.01;58.53
17209;BME280;8720;48.488;9.202;2023-05-11T00:56:28;96812.59;;;17.00;58.02
17209;BME280;8720;48.488;9.202;2023-05-11T00:58:55;96818.56;;;17.04;58.43
17209;BME280;8720;48.488;9.202;2023-05-11T01:01:23;96818.47;;;17.05;58.80
17209;BME280;8720;48.488;9.202;2023-05-11T01:03:50;96820.19;;;17.06;58.31
17209;BME280;8720;48.488;9.202;2023-05-11T01:06:28;96807.81;;;17.07;58.21
17209;BME280;8720;48.488;9.202;2023-05-11T01:09:06;96800.28;;;16.99;58.40
17209;BME280;8720;48.488;9.202;2023-05-11T01:11:42;96806.13;;;17.06;58.16
17209;BME280;8720;48.488;9.202;2023-05-11T01:14:19;96798.41;;;17.01;58.53
17209;BME280;8720;48.488;9.202;2023-05-11T01:16:52;96809.44;;;17.09;58.43
17209;BME280;8720;48.488;9.202;2023-05-11T01:19:36;96813.09;;;17.07;58.58
17209;BME280;8720;48.488;9.202;2023-05-11T01:22:19;96802.00;;;17.00;58.14
17209;BME280;8720;48.488;9.202;2023-05-11T01:25:11;96811.50;;;17.04;58.37
17209;BME280;8720;48.488;9.202;2023-05-11T01:28:02;96815.81;;;17.05;58.88
17209;BME280;8720;48.488;9.202;2023-05-11T01:30:42;96812.25;;;17.06;58.81
17209;BME280;8720;48.488;9.202;2023-05-11T01:33:15;96811.41;;;17.06;58.50
17209;BME280;8720;48.488;9.202;2023-05-11T01:35:52;96811.22;;;17.09;58.77
17209;BME280;8720;48.488;9.202;2023-05-11T01:38:24;96811.22;;;17.09;58.46
17209;BME280;8720;48.488;9.202;2023-05-11T01:40:56;96811.13;;;17.10;58.44
17209;BME280;8720;48.488;9.202;2023-05-11T01:43:29;96817.28;;;17.11;58.17
17209;BME280;8720;48.488;9.202;2023-05-11T01:46:02;96818.25;;;17.10;58.37
17209;BME280;8720;48.488;9.202;2023-05-11T01:48:37;96809.44;;;17.09;58.26
17209;BME280;8720;48.488;9.202;2023-05-11T01:51:06;96806.13;;;17.06;58.53
17209;BME280;8720;48.488;9.202;2023-05-11T01:53:36;96814.91;;;17.06;58.31
17209;BME280;8720;48.488;9.202;2023-05-11T01:56:06;96817.19;;;17.12;58.57
17209;BME280;8720;48.488;9.202;2023-05-11T01:58:37;96818.16;;;17.11;58.28
17209;BME280;8720;48.488;9.202;2023-05-11T02:03:43;96826.75;;;17.15;58.21
17209;BME280;8720;48.488;9.202;2023-05-11T02:06:14;96799.97;;;17.05;58.36
17209;BME280;8720;48.488;9.202;2023-05-11T02:08:45;96810.91;;;17.15;58.70
17209;BME280;8720;48.488;9.202;2023-05-11T02:11:15;96819.59;;;17.17;58.47
17209;BME280;8720;48.488;9.202;2023-05-11T02:13:46;96813.41;;;17.18;58.25
17209;BME280;8720;48.488;9.202;2023-05-11T02:16:17;96820.38;;;17.19;58.36
17209;BME280;8720;48.488;9.202;2023-05-11T02:18:48;96823.97;;;17.18;58.14
17209;BME280;8720;48.488;9.202;2023-05-11T02:21:16;96823.03;;;17.19;58.26
17209;BME280;8720;48.488;9.202;2023-05-11T02:23:46;96822.16;;;17.18;58.37
17209;BME280;8720;48.488;9.202;2023-05-11T02:26:15;96818.69;;;17.18;58.19
17209;BME280;8720;48.488;9.202;2023-05-11T02:28:43;96812.63;;;17.16;58.15
17209;BME280;8720;48.488;9.202;2023-05-11T02:31:18;96813.41;;;17.18;58.11
17209;BME280;8720;48.488;9.202;2023-05-11T02:33:49;96820.47;;;17.17;58.02
17209;BME280;8720;48.488;9.202;2023-05-11T02:36:21;96816.09;;;17.16;58.27
17209;BME280;8720;48.488;9.202;2023-05-11T02:39:03;96810.00;;;17.16;58.23
17209;BME280;8720;48.488;9.202;2023-05-11T02:41:41;96819.59;;;17.17;58.39
17209;BME280;8720;48.488;9.202;2023-05-11T02:44:14;96806.47;;;17.15;58.71
17209;BME280;8720;48.488;9.202;2023-05-11T02:46:46;96797.41;;;17.04;58.38
17209;BME280;8720;48.488;9.202;2023-05-11T02:49:20;96808.44;;;17.12;58.51
17209;BME280;8720;48.488;9.202;2023-05-11T02:51:53;96810.31;;;17.10;58.63
17209;BME280;8720;48.488;9.202;2023-05-11T02:54:23;96810.22;;;17.11;58.39
17209;BME280;8720;48.488;9.202;2023-05-11T02:56:55;96812.09;;;17.09;58.55
17209;BME280;8720;48.488;9.202;2023-05-11T02:59:23;96803.16;;;17.12;58.54
17209;BME280;8720;48.488;9.202;2023-05-11T03:01:53;96794.78;;;17.04;58.43
17209;BME280;8720;48.488;9.202;2023-05-11T03:04:22;96803.16;;;17.12;58.84
17209;BME280;8720;48.488;9.202;2023-05-11T03:06:49;96793.41;;;17.12;58.70
17209;BME280;8720;48.488;9.202;2023-05-11T03:09:17;96802.28;;;17.11;58.82
17209;BME280;8720;48.488;9.202;2023-05-11T03:11:48;96787.63;;;17.06;58.64
17209;BME280;8720;48.488;9.202;2023-05-11T03:14:17;96797.16;;;17.08;58.77
17209;BME280;8720;48.488;9.202;2023-05-11T03:16:47;96780.69;;;17.03;58.62
17209;BME280;8720;48.488;9.202;2023-05-11T03:19:16;96784.09;;;17.05;58.80
17209;BME280;8720;48.488;9.202;2023-05-11T03:21:45;96801.44;;;17.11;58.75
17209;BME280;8720;48.488;9.202;2023-05-11T03:24:14;96797.25;;;17.07;58.62
17209;BME280;8720;48.488;9.202;2023-05-11T03:26:43;96796.41;;;17.06;58.83
17209;BME280;8720;48.488;9.202;2023-05-11T03:29:14;96784.44;;;16.99;58.56
17209;BME280;8720;48.488;9.202;2023-05-11T03:31:43;96776.41;;;17.01;58.83
17209;BME280;8720;48.488;9.202;2023-05-11T03:34:10;96780.53;;;17.06;58.88
17209;BME280;8720;48.488;9.202;2023-05-11T03:36:45;96780.78;;;17.02;58.81
17209;BME280;8720;48.488;9.202;2023-05-11T03:39:16;96777.19;;;17.03;58.88
17209;BME280;8720;48.488;9.202;2023-05-11T03:41:49;96784.97;;;17.06;58.58
17209;BME280;8720;48.488;9.202;2023-05-11T03:44:17;96748.56;;;16.78;58.84
17209;BME280;8720;48.488;9.202;2023-05-11T03:46:49;96789.47;;;17.04;59.19
17209;BME280;8720;48.488;9.202;2023-05-11T03:49:18;96777.13;;;17.04;58.94
17209;BME280;8720;48.488;9.202;2023-05-11T03:51:47;96780.59;;;17.05;58.92
17209;BME280;8720;48.488;9.202;2023-05-11T03:54:15;96785.97;;;17.03;59.09
17209;BME280;8720;48.488;9.202;2023-05-11T03:56:42;96775.03;;;16.94;58.86
17209;BME280;8720;48.488;9.202;2023-05-11T03:59:14;96778.63;;;16.93;59.10
17209;BME280;8720;48.488;9.202;2023-05-11T04:01:42;96763.09;;;16.87;59.23
17209;BME280;8720;48.488;9.202;2023-05-11T04:04:10;96774.19;;;16.93;59.39
17209;BME280;8720;48.488;9.202;2023-05-11T04:06:37;96779.31;;;16.96;59.40
17209;BME280;8720;48.488;9.202;2023-05-11T04:09:11;96781.97;;;16.96;59.62
17209;BME280;8720;48.488;9.202;2023-05-11T04:11:39;96769.38;;;16.84;59.60
17209;BME280;8720;48.488;9.202;2023-05-11T04:14:06;96779.41;;;16.95;59.56
17209;BME280;8720;48.488;9.202;2023-05-11T04:16:33;96782.88;;;16.95;59.59
17209;BME280;8720;48.488;9.202;2023-05-11T04:19:01;96782.06;;;16.95;59.73
17209;BME280;8720;48.488;9.202;2023-05-11T04:21:28;96779.47;;;16.93;59.88
17209;BME280;8720;48.488;9.202;2023-05-11T04:23:55;96780.31;;;16.94;59.77
17209;BME280;8720;48.488;9.202;2023-05-11T04:26:24;96782.06;;;16.95;59.67
17209;BME280;8720;48.488;9.202;2023-05-11T04:28:52;96789.44;;;16.88;59.51
17209;BME280;8720;48.488;9.202;2023-05-11T04:31:19;96784.75;;;16.93;59.88
17209;BME280;8720;48.488;9.202;2023-05-11T04:33:47;96787.47;;;16.92;59.49
17209;BME280;8720;48.488;9.202;2023-05-11T04:36:15;96792.75;;;16.92;60.04
17209;BME280;8720;48.488;9.202;2023-05-11T04:38:43;96787.47;;;16.92;59.90
17209;BME280;8720;48.488;9.202;2023-05-11T04:41:11;96779.78;;;16.87;60.02
17209;BME280;8720;48.488;9.202;2023-05-11T04:43:41;96757.09;;;17.00;57.82
17209;BME280;8720;48.488;9.202;2023-05-11T04:46:10;96788.97;;;17.13;58.64
17209;BME280;8720;48.488;9.202;2023-05-11T04:48:38;96796.31;;;17.08;59.02
17209;BME280;8720;48.488;9.202;2023-05-11T04:51:05;96790.25;;;17.06;59.32
17209;BME280;8720;48.488;9.202;2023-05-11T04:53:38;96796.47;;;17.05;59.54
17209;BME280;8720;48.488;9.202;2023-05-11T04:56:06;96793.00;;;17.04;59.75
17209;BME280;8720;48.488;9.202;2023-05-11T04:58:33;96785.84;;;17.06;59.66
17209;BME280;8720;48.488;9.202;2023-05-11T05:01:02;96797.16;;;17.08;59.45
17209;BME280;8720;48.488;9.202;2023-05-11T05:03:30;96796.13;;;17.11;59.81
17209;BME280;8720;48.488;9.202;2023-05-11T05:05:57;96788.22;;;17.11;59.58
17209;BME280;8720;48.488;9.202;2023-05-11T05:08:24;96793.34;;;17.14;59.57
17209;BME280;8720;48.488;9.202;2023-05-11T05:10:52;96795.03;;;17.15;59.47
17209;BME280;8720;48.488;9.202;2023-05-11T05:13:19;96800.19;;;17.18;59.62
17209;BME280;8720;48.488;9.202;2023-05-11T05:15:46;96799.16;;;17.20;59.62
17209;BME280;8720;48.488;9.202;2023-05-11T05:18:15;96795.59;;;17.21;59.95
17209;BME280;8720;48.488;9.202;2023-05-11T05:20:44;96796.41;;;17.22;59.64
17209;BME280;8720;48.488;9.202;2023-05-11T05:23:13;96787.56;;;17.23;59.87
17209;BME280;8720;48.488;9.202;2023-05-11T05:25:41;96789.25;;;17.24;59.75
17209;BME280;8720;48.488;9.202;2023-05-11T05:28:08;96790.88;;;17.26;60.07
17209;BME280;8720;48.488;9.202;2023-05-11T05:30:35;96794.31;;;17.28;59.94
17209;BME280;8720;48.488;9.202;2023-05-11T05:33:03;96798.59;;;17.31;60.12
17209;BME280;8720;48.488;9.202;2023-05-11T05:35:34;96802.50;;;17.40;59.35
17209;BME280;8720;48.488;9.202;2023-05-11T05:38:01;96805.09;;;17.41;59.20
17209;BME280;8720;48.488;9.202;2023-05-11T05:40:28;96804.13;;;17.42;59.63
17209;BME280;8720;48.488;9.202;2023-05-11T05:42:56;96799.63;;;17.44;59.87
17209;BME280;8720;48.488;9.202;2023-05-11T05:45:24;96803.91;;;17.47;59.77
17209;BME280;8720;48.488;9.202;2023-05-11T05:47:52;96806.41;;;17.50;59.56
17209;BME280;8720;48.488;9.202;2023-05-11T05:50:20;96802.81;;;17.51;59.47
17209;BME280;8720;48.488;9.202;2023-05-11T05:52:49;96803.66;;;17.51;59.44
17209;BME280;8720;48.488;9.202;2023-05-11T05:55:17;96808.63;;;17.57;59.38
17209;BME280;8720;48.488;9.202;2023-05-11T05:57:48;96795.56;;;17.54;59.48
17209;BME280;8720;48.488;9.202;2023-05-11T06:00:16;96809.28;;;17.61;59.35
17209;BME280;8720;48.488;9.202;2023-05-11T06:02:48;96807.44;;;17.63;59.74
17209;BME280;8720;48.488;9.202;2023-05-11T06:05:22;96812.56;;;17.66;59.78
17209;BME280;8720;48.488;9.202;2023-05-11T06:07:51;96807.09;;;17.69;59.53
17209;BME280;8720;48.488;9.202;2023-05-11T06:10:19;96802.66;;;17.69;59.25
17209;BME280;8720;48.488;9.202;2023-05-11T06:12:46;96818.19;;;17.75;59.55
17209;BME280;8720;48.488;9.202;2023-05-11T06:15:14;96812.72;;;17.78;59.57
17209;BME280;8720;48.488;9.202;2023-05-11T06:17:45;96814.25;;;17.82;59.28
17209;BME280;8720;48.488;9.202;2023-05-11T06:20:13;96808.88;;;17.84;59.44
17209;BME280;8720;48.488;9.202;2023-05-11T06:22:41;96814.09;;;17.85;59.51
17209;BME280;8720;48.488;9.202;2023-05-11T06:25:09;96810.50;;;17.86;58.96
17209;BME280;8720;48.488;9.202;2023-05-11T06:27:37;96816.56;;;17.88;59.30
17209;BME280;8720;48.488;9.202;2023-05-11T06:30:06;96813.00;;;17.89;59.03
17209;BME280;8720;48.488;9.202;2023-05-11T06:32:36;96811.19;;;17.90;59.17
17209;BME280;8720;48.488;9.202;2023-05-11T06:35:05;96820.84;;;17.91;59.09
17209;BME280;8720;48.488;9.202;2023-05-11T06:37:33;96814.59;;;17.92;59.08
17209;BME280;8720;48.488;9.202;2023-05-11T06:40:01;96812.91;;;17.91;58.96
17209;BME280;8720;48.488;9.202;2023-05-11T06:42:30;96816.22;;;17.94;59.19
17209;BME280;8720;48.488;9.202;2023-05-11T06:45:07;96812.72;;;17.94;59.29
17209;BME280;8720;48.488;9.202;2023-05-11T06:47:35;96813.50;;;17.96;58.92
17209;BME280;8720;48.488;9.202;2023-05-11T06:50:03;96809.97;;;17.95;59.19
17209;BME280;8720;48.488;9.202;2023-05-11T06:52:30;96814.25;;;17.98;59.34
17209;BME280;8720;48.488;9.202;2023-05-11T06:55:00;96809.81;;;17.98;58.80
17209;BME280;8720;48.488;9.202;2023-05-11T06:57:27;96815.88;;;18.00;59.22
17209;BME280;8720;48.488;9.202;2023-05-11T06:59:56;96812.19;;;18.03;59.36
17209;BME280;8720;48.488;9.202;2023-05-11T07:02:23;96812.97;;;18.05;58.98
17209;BME280;8720;48.488;9.202;2023-05-11T07:04:50;96812.91;;;18.06;59.17
17209;BME280;8720;48.488;9.202;2023-05-11T07:07:18;96813.72;;;18.07;59.20
17209;BME280;8720;48.488;9.202;2023-05-11T07:09:45;96824.31;;;18.07;58.89
17209;BME280;8720;48.488;9.202;2023-05-11T07:12:12;96819.13;;;18.05;58.83
17209;BME280;8720;48.488;9.202;2023-05-11T07:14:39;96828.78;;;18.06;59.20
17209;BME280;8720;48.488;9.202;2023-05-11T07:17:08;96817.44;;;18.04;59.09
17209;BME280;8720;48.488;9.202;2023-05-11T07:19:35;96817.25;;;18.07;58.92
17209;BME280;8720;48.488;9.202;2023-05-11T07:22:03;96823.41;;;18.08;59.17
17209;BME280;8720;48.488;9.202;2023-05-11T07:24:30;96823.31;;;18.09;59.28
17209;BME280;8720;48.488;9.202;2023-05-11T07:26:58;96819.72;;;18.10;59.44
17209;BME280;8720;48.488;9.202;2023-05-11T07:29:27;96822.28;;;18.12;58.88
17209;BME280;8720;48.488;9.202;2023-05-11T07:31:54;96823.97;;;18.13;59.24
17209;BME280;8720;48.488;9.202;2023-05-11T07:34:22;96824.75;;;18.15;59.43
17209;BME280;8720;48.488;9.202;2023-05-11T07:36:50;96825.41;;;18.18;59.03
17209;BME280;8720;48.488;9.202;2023-05-11T07:39:17;96831.47;;;18.21;59.36
17209;BME280;8720;48.488;9.202;2023-05-11T07:41:44;96824.31;;;18.23;59.51
17209;BME280;8720;48.488;9.202;2023-05-11T07:44:12;96825.69;;;18.30;59.37
17209;BME280;8720;48.488;9.202;2023-05-11T07:46:39;96835.16;;;18.34;59.32
17209;BME280;8720;48.488;9.202;2023-05-11T07:49:07;96822.75;;;18.34;59.06
17209;BME280;8720;48.488;9.202;2023-05-11T07:51:37;96818.31;;;18.35;58.83
17209;BME280;8720;48.488;9.202;2023-05-11T07:54:04;96804.41;;;18.31;59.08
17209;BME280;8720;48.488;9.202;2023-05-11T07:56:31;96815.41;;;18.39;59.43
17209;BME280;8720;48.488;9.202;2023-05-11T07:58:59;96814.34;;;18.42;59.32
17209;BME280;8720;48.488;9.202;2023-05-11T08:01:26;96821.31;;;18.44;59.01
17209;BME280;8720;48.488;9.202;2023-05-11T08:03:53;96812.34;;;18.47;58.90
17209;BME280;8720;48.488;9.202;2023-05-11T08:06:21;96825.22;;;18.53;59.21
17209;BME280;8720;48.488;9.202;2023-05-11T08:08:50;96822.59;;;18.53;58.77
17209;BME280;8720;48.488;9.202;2023-05-11T08:11:17;96823.34;;;18.55;58.40
17209;BME280;8720;48.488;9.202;2023-05-11T08:13:44;96819.75;;;18.56;58.51
17209;BME280;8720;48.488;9.202;2023-05-11T08:16:12;96822.38;;;18.56;58.67
17209;BME280;8720;48.488;9.202;2023-05-11T08:18:39;96807.91;;;18.47;58.18
17209;BME280;8720;48.488;9.202;2023-05-11T08:21:07;96809.25;;;18.54;58.85
17209;BME280;8720;48.488;9.202;2023-05-11T08:23:34;96813.50;;;18.57;58.81
17209;BME280;8720;48.488;9.202;2023-05-11T08:26:03;96817.00;;;18.57;58.87
17209;BME280;8720;48.488;9.202;2023-05-11T08:28:31;96823.16;;;18.58;58.67
17209;BME280;8720;48.488;9.202;2023-05-11T08:30:59;96816.06;;;18.58;58.73
17209;BME280;8720;48.488;9.202;2023-05-11T08:33:26;96823.91;;;18.60;58.65
17209;BME280;8720;48.488;9.202;2023-05-11T08:35:54;96823.81;;;18.61;58.96
17209;BME280;8720;48.488;9.202;2023-05-11T08:38:21;96807.16;;;18.59;58.81
17209;BME280;8720;48.488;9.202;2023-05-11T08:40:50;96817.16;;;18.70;58.77
17209;BME280;8720;48.488;9.202;2023-05-11T08:43:19;96814.41;;;18.71;58.80
17209;BME280;8720;48.488;9.202;2023-05-11T08:45:55;96815.25;;;18.72;58.04
17209;BME280;8720;48.488;9.202;2023-05-11T08:48:23;96813.53;;;18.71;58.14
17209;BME280;8720;48.488;9.202;2023-05-11T08:50:50;96809.09;;;18.71;58.06
17209;BME280;8720;48.488;9.202;2023-05-11T08:53:17;96814.28;;;18.73;58.10
17209;BME280;8720;48.488;9.202;2023-05-11T08:55:46;96815.16;;;18.73;57.95
17209;BME280;8720;48.488;9.202;2023-05-11T08:58:18;96822.91;;;18.76;58.12
17209;BME280;8720;48.488;9.202;2023-05-11T09:00:48;96808.72;;;18.77;58.20
17209;BME280;8720;48.488;9.202;2023-05-11T09:03:17;96807.97;;;18.75;57.75
17209;BME280;8720;48.488;9.202;2023-05-11T09:05:46;96808.84;;;18.76;57.95
17209;BME280;8720;48.488;9.202;2023-05-11T09:08:16;96797.53;;;18.72;57.76
17209;BME280;8720;48.488;9.202;2023-05-11T09:10:44;96814.59;;;18.82;58.10
17209;BME280;8720;48.488;9.202;2023-05-11T09:13:12;96808.19;;;18.86;57.93
17209;BME280;8720;48.488;9.202;2023-05-11T09:15:41;96815.09;;;18.89;58.08
17209;BME280;8720;48.488;9.202;2023-05-11T09:18:08;96808.66;;;18.93;57.94
17209;BME280;8720;48.488;9.202;2023-05-11T09:20:35;96809.22;;;18.98;57.44
17209;BME280;8720;48.488;9.202;2023-05-11T09:23:02;96812.47;;;19.03;57.72
17209;BME280;8720;48.488;9.202;2023-05-11T09:25:31;96803.41;;;19.07;57.14
17209;BME280;8720;48.488;9.202;2023-05-11T09:28:00;96808.50;;;19.10;56.90
17209;BME280;8720;48.488;9.202;2023-05-11T09:30:27;96808.50;;;19.10;57.37
17209;BME280;8720;48.488;9.202;2023-05-11T09:32:57;96805.75;;;19.12;57.17
17209;BME280;8720;48.488;9.202;2023-05-11T09:35:30;96802.94;;;19.15;57.48
17209;BME280;8720;48.488;9.202;2023-05-11T09:38:09;96802.81;;;19.16;57.46
17209;BME280;8720;48.488;9.202;2023-05-11T09:40:39;96805.38;;;19.18;57.13
17209;BME280;8720;48.488;9.202;2023-05-11T09:43:17;96803.59;;;19.18;56.71
17209;BME280;8720;48.488;9.202;2023-05-11T09:45:46;96804.13;;;19.23;56.37
17209;BME280;8720;48.488;9.202;2023-05-11T09:48:28;96796.50;;;19.19;56.67
17209;BME280;8720;48.488;9.202;2023-05-11T09:51:03;96798.94;;;19.22;56.49
17209;BME280;8720;48.488;9.202;2023-05-11T09:53:39;96800.16;;;19.16;56.27
17209;BME280;8720;48.488;9.202;2023-05-11T09:56:08;96806.88;;;19.08;56.70
17209;BME280;8720;48.488;9.202;2023-05-11T09:58:51;96791.81;;;18.94;57.45
17209;BME280;8720;48.488;9.202;2023-05-11T10:01:29;96802.25;;;18.97;56.95
17209;BME280;8720;48.488;9.202;2023-05-11T10:04:00;96809.13;;;18.99;57.01
17209;BME280;8720;48.488;9.202;2023-05-11T10:06:46;96795.13;;;18.97;56.76
17209;BME280;8720;48.488;9.202;2023-05-11T10:09:16;96801.94;;;19.01;56.32
17209;BME280;8720;48.488;9.202;2023-05-11T10:11:45;96803.94;;;18.98;56.73
17209;BME280;8720;48.488;9.202;2023-05-11T10:14:14;96804.41;;;18.90;56.94
17209;BME280;8720;48.488;9.202;2023-05-11T10:16:43;96801.25;;;18.84;56.63
17209;BME280;8720;48.488;9.202;2023-05-11T10:19:12;96813.94;;;18.79;57.10
17209;BME280;8720;48.488;9.202;2023-05-11T10:21:40;96778.78;;;18.61;57.21
17209;BME280;8720;48.488;9.202;2023-05-11T10:24:09;96803.91;;;18.70;57.12
17209;BME280;8720;48.488;9.202;2023-05-11T10:26:37;96797.94;;;18.66;56.88
17209;BME280;8720;48.488;9.202;2023-05-11T10:29:04;96797.41;;;18.60;57.58
17209;BME280;8720;48.488;9.202;2023-05-11T10:31:33;96795.69;;;18.45;57.97
17209;BME280;8720;48.488;9.202;2023-05-11T10:34:02;96792.50;;;18.38;58.13
17209;BME280;8720;48.488;9.202;2023-05-11T10:36:31;96780.81;;;18.27;58.45
17209;BME280;8720;48.488;9.202;2023-05-11T10:38:59;96800.97;;;18.29;58.77
17209;BME280;8720;48.488;9.202;2023-05-11T10:41:46;96803.13;;;18.23;58.28
17209;BME280;8720;48.488;9.202;2023-05-11T10:45:05;96802.13;;;18.09;59.42
17209;BME280;8720;48.488;9.202;2023-05-11T10:51:29;96772.59;;;17.86;59.49
17209;BME280;8720;48.488;9.202;2023-05-11T10:54:20;96787.28;;;17.91;59.64
17209;BME280;8720;48.488;9.202;2023-05-11T10:57:12;96797.03;;;17.91;59.54
17209;BME280;8720;48.488;9.202;2023-05-11T11:02:41;96783.34;;;17.98;60.14
17209;BME280;8720;48.488;9.202;2023-05-11T11:05:10;96793.25;;;18.10;59.44
17209;BME280;8720;48.488;9.202;2023-05-11T11:07:58;96794.75;;;18.14;59.01
17209;BME280;8720;48.488;9.202;2023-05-11T11:10:32;96788.44;;;18.17;59.35
17209;BME280;8720;48.488;9.202;2023-05-11T11:13:06;96785.03;;;18.15;59.25
17209;BME280;8720;48.488;9.202;2023-05-11T11:16:08;96786.47;;;18.21;59.79
17209;BME280;8720;48.488;9.202;2023-05-11T11:18:36;96795.13;;;18.24;59.29
17209;BME280;8720;48.488;9.202;2023-05-11T11:21:03;96786.13;;;18.27;59.22
17209;BME280;8720;48.488;9.202;2023-05-11T11:23:48;96786.00;;;18.28;58.95
17209;BME280;8720;48.488;9.202;2023-05-11T11:26:45;96788.50;;;18.31;59.29
17209;BME280;8720;48.488;9.202;2023-05-11T11:29:12;96787.47;;;18.34;58.27
17209;BME280;8720;48.488;9.202;2023-05-11T11:31:40;96782.25;;;18.32;58.04
17209;BME280;8720;48.488;9.202;2023-05-11T11:34:35;96796.94;;;18.38;58.30
17209;BME280;8720;48.488;9.202;2023-05-11T11:37:04;96754.22;;;18.28;57.58
17209;BME280;8720;48.488;9.202;2023-05-11T11:40:04;96784.38;;;18.57;58.28
17209;BME280;8720;48.488;9.202;2023-05-11T11:42:37;96781.94;;;18.68;56.88
17209;BME280;8720;48.488;9.202;2023-05-11T11:45:32;96769.69;;;18.65;57.68
17209;BME280;8720;48.488;9.202;2023-05-11T11:48:11;96781.97;;;18.82;57.04
17209;BME280;8720;48.488;9.202;2023-05-11T11:50:41;96774.66;;;18.85;57.25
17209;BME280;8720;48.488;9.202;2023-05-11T11:53:11;96767.28;;;18.90;57.40
17209;BME280;8720;48.488;9.202;2023-05-11T11:55:47;96778.00;;;19.03;57.24
17209;BME280;8720;48.488;9.202;2023-05-11T11:58:57;96781.97;;;19.10;58.18
17209;BME280;8720;48.488;9.202;2023-05-11T12:01:28;96780.75;;;19.16;57.10
17209;BME280;8720;48.488;9.202;2023-05-11T12:04:37;96771.94;;;19.15;57.57
17209;BME280;8720;48.488;9.202;2023-05-11T12:07:07;96769.75;;;19.22;57.58
17209;BME280;8720;48.488;9.202;2023-05-11T12:09:38;96779.72;;;19.32;56.80
17209;BME280;8720;48.488;9.202;2023-05-11T12:12:07;96757.47;;;19.35;56.42
17209;BME280;8720;48.488;9.202;2023-05-11T12:14:38;96759.84;;;19.39;56.20
17209;BME280;8720;48.488;9.202;2023-05-11T12:17:09;96770.34;;;19.55;56.30
17209;BME280;8720;48.488;9.202;2023-05-11T12:19:42;96769.63;;;19.65;56.58
17209;BME280;8720;48.488;9.202;2023-05-11T12:22:11;96760.63;;;19.68;56.19
17209;BME280;8720;48.488;9.202;2023-05-11T12:24:42;96770.16;;;19.84;55.51
17209;BME280;8720;48.488;9.202;2023-05-11T12:27:09;96769.97;;;19.87;55.54
17209;BME280;8720;48.488;9.202;2023-05-11T12:29:38;96768.25;;;19.86;55.45
17209;BME280;8720;48.488;9.202;2023-05-11T12:32:10;96761.66;;;19.79;55.18
17209;BME280;8720;48.488;9.202;2023-05-11T12:34:38;96758.53;;;19.73;55.56
17209;BME280;8720;48.488;9.202;2023-05-11T12:37:06;96770.22;;;19.70;55.97
17209;BME280;8720;48.488;9.202;2023-05-11T12:39:33;96755.44;;;19.66;55.94
17209;BME280;8720;48.488;9.202;2023-05-11T12:42:02;96767.09;;;19.64;55.41
17209;BME280;8720;48.488;9.202;2023-05-11T12:44:31;96761.78;;;19.64;55.46
17209;BME280;8720;48.488;9.202;2023-05-11T12:47:00;96761.03;;;19.62;55.35
17209;BME280;8720;48.488;9.202;2023-05-11T12:49:28;96755.22;;;19.69;55.90
17209;BME280;8720;48.488;9.202;2023-05-11T12:52:05;96760.44;;;19.71;55.84
17209;BME280;8720;48.488;9.202;2023-05-11T12:54:35;96754.38;;;19.69;55.69
17209;BME280;8720;48.488;9.202;2023-05-11T12:57:05;96752.47;;;19.71;55.46
17209;BME280;8720;48.488;9.202;2023-05-11T12:59:35;96746.97;;;19.74;55.61
17209;BME280;8720;48.488;9.202;2023-05-11T13:02:17;96741.16;;;19.81;55.57
17209;BME280;8720;48.488;9.202;2023-05-11T13:04:46;96740.38;;;19.93;54.64
17209;BME280;8720;48.488;9.202;2023-05-11T13:07:24;96741.78;;;19.99;54.84
17209;BME280;8720;48.488;9.202;2023-05-11T13:09:56;96747.53;;;20.06;54.48
17209;BME280;8720;48.488;9.202;2023-05-11T13:12:24;96738.50;;;20.08;54.30
17209;BME280;8720;48.488;9.202;2023-05-11T13:15:05;96744.47;;;20.12;54.36
17209;BME280;8720;48.488;9.202;2023-05-11T13:17:36;96728.94;;;20.06;54.08
17209;BME280;8720;48.488;9.202;2023-05-11T13:20:18;96722.03;;;20.03;54.36
17209;BME280;8720;48.488;9.202;2023-05-11T13:22:47;96734.81;;;20.11;54.32
17209;BME280;8720;48.488;9.202;2023-05-11T13:25:18;96729.69;;;20.08;54.16
17209;BME280;8720;48.488;9.202;2023-05-11T13:27:46;96725.69;;;20.15;54.25
17209;BME280;8720;48.488;9.202;2023-05-11T13:30:14;96731.81;;;20.15;54.19
17209;BME280;8720;48.488;9.202;2023-05-11T13:32:42;96724.56;;;20.19;54.00
17209;BME280;8720;48.488;9.202;2023-05-11T13:35:10;96730.00;;;20.30;54.06
17209;BME280;8720;48.488;9.202;2023-05-11T13:37:37;96729.03;;;20.31;54.12
17209;BME280;8720;48.488;9.202;2023-05-11T13:40:06;96727.34;;;20.30;53.55